sensor_id;sensor_type;location;lat;lon;timestamp;temperature;humidity
11083;DHT22;5595;50.186;8.468;2023-12-20T01:14:48;5.50;99.90
11083;DHT22;5595;50.186;8.468;2023-12-20T01:17:15;5.50;99.90
11083;DHT22;5595;50.186;8.468;2023-12-20T01:19:41;5.50;99.90
11083;DHT22;5595;50.186;8.468;2023-12-20T01:22:08;5.60;99.90
11083;DHT22;5595;50.186;8.468;2023-12-20T01:24:35;5.70;99.90
11083;DHT22;5595;50.186;8.468;2023-12-20T01:27:02;5.50;99.90
11083;DHT22;5595;50.186;8.468;2023-12-20T01:29:29;5.50;99.90
11083;DHT22;5595;50.186;8.468;2023-12-20T01:31:57;5.60;99.90
11083;DHT22;5595;50.186;8.468;2023-12-20T01:34:24;5.60;99.90
11083;DHT22;5595;50.186;8.468;2023-12-20T01:36:50;5.60;99.90
11083;DHT22;5595;50.186;8.468;2023-12-20T01:39:17;5.60;99.90
11083;DHT22;5595;50.186;8.468;2023-12-20T01:41:44;5.60;99.90
11083;DHT22;5595;50.186;8.468;2023-12-20T01:44:11;5.60;99.90
11083;DHT22;5595;50.186;8.468;2023-12-20T01:46:38;5.60;99.90
11083;DHT22;5595;50.186;8.468;2023-12-20T01:49:06;5.60;99.90
11083;DHT22;5595;50.186;8.468;2023-12-20T02:30:44;5.70;99.90
11083;DHT22;5595;50.186;8.468;2023-12-20T02:33:12;5.80;99.90
11083;DHT22;5595;50.186;8.468;2023-12-20T02:35:40;5.70;99.90
11083;DHT22;5595;50.186;8.468;2023-12-20T02:38:07;5.70;99.90
11083;DHT22;5595;50.186;8.468;2023-12-20T02:40:34;5.70;99.90
11083;DHT22;5595;50.186;8.468;2023-12-20T02:43:01;5.70;99.90
11083;DHT22;5595;50.186;8.468;2023-12-20T02:45:27;5.70;99.90
11083;DHT22;5595;50.186;8.468;2023-12-20T02:47:56;5.80;99.90
11083;DHT22;5595;50.186;8.468;2023-12-20T02:50:22;5.80;99.90
11083;DHT22;5595;50.186;8.468;2023-12-20T02:52:49;5.90;99.90
11083;DHT22;5595;50.186;8.468;2023-12-20T02:55:16;5.80;99.90
11083;DHT22;5595;50.186;8.468;2023-12-20T02:57:43;5.90;99.90
11083;DHT22;5595;50.186;8.468;2023-12-20T03:00:10;5.80;99.90
11083;DHT22;5595;50.186;8.468;2023-12-20T03:02:37;5.80;99.90
11083;DHT22;5595;50.186;8.468;2023-12-20T03:05:06;5.80;99.90
11083;DHT22;5595;50.186;8.468;2023-12-20T03:07:33;5.80;99.90
11083;DHT22;5595;50.186;8.468;2023-12-20T03:15:11;5.70;99.90
11083;DHT22;5595;50.186;8.468;2023-12-20T03:17:37;5.60;99.90
11083;DHT22;5595;50.186;8.468;2023-12-20T03:20:08;5.90;99.90
11083;DHT22;5595;50.186;8.468;2023-12-20T03:22:35;5.50;99.90
11083;DHT22;5595;50.186;8.468;2023-12-20T03:25:01;5.50;99.90
11083;DHT22;5595;50.186;8.468;2023-12-20T03:27:28;5.30;99.90
11083;DHT22;5595;50.186;8.468;2023-12-20T03:29:55;5.60;99.90
11083;DHT22;5595;50.186;8.468;2023-12-20T03:32:22;5.60;99.90
11083;DHT22;5595;50.186;8.468;2023-12-20T03:34:49;5.50;99.90
11083;DHT22;5595;50.186;8.468;2023-12-20T03:37:18;5.80;99.90
11083;DHT22;5595;50.186;8.468;2023-12-20T03:39:45;5.80;99.90
11083;DHT22;5595;50.186;8.468;2023-12-20T03:42:14;5.60;99.90
11083;DHT22;5595;50.186;8.468;2023-12-20T03:44:44;5.80;99.90
11083;DHT22;5595;50.186;8.468;2023-12-20T03:47:14;5.50;99.90
11083;DHT22;5595;50.186;8.468;2023-12-20T03:49:44;5.90;99.90
11083;DHT22;5595;50.186;8.468;2023-12-20T03:52:11;5.70;99.90
11083;DHT22;5595;50.186;8.468;2023-12-20T03:54:43;5.60;99.90
11083;DHT22;5595;50.186;8.468;2023-12-20T03:57:10;5.70;99.90
11083;DHT22;5595;50.186;8.468;2023-12-20T03:59:37;5.70;99.90
11083;DHT22;5595;50.186;8.468;2023-12-20T04:02:07;6.60;99.90
11083;DHT22;5595;50.186;8.468;2023-12-20T04:04:37;5.80;99.90
11083;DHT22;5595;50.186;8.468;2023-12-20T04:07:04;5.90;99.90
11083;DHT22;5595;50.186;8.468;2023-12-20T04:12:08;5.90;99.90
11083;DHT22;5595;50.186;8.468;2023-12-20T04:14:35;5.90;99.90
11083;DHT22;5595;50.186;8.468;2023-12-20T04:17:04;5.90;99.90
11083;DHT22;5595;50.186;8.468;2023-12-20T04:19:33;6.00;99.90
11083;DHT22;5595;50.186;8.468;2023-12-20T04:22:00;5.90;99.90
11083;DHT22;5595;50.186;8.468;2023-12-20T04:24:29;6.40;99.90
11083;DHT22;5595;50.186;8.468;2023-12-20T04:26:56;6.20;99.90
11083;DHT22;5595;50.186;8.468;2023-12-20T04:29:29;6.00;99.90
11083;DHT22;5595;50.186;8.468;2023-12-20T04:31:58;6.00;99.90
11083;DHT22;5595;50.186;8.468;2023-12-20T04:34:25;5.80;99.90
11083;DHT22;5595;50.186;8.468;2023-12-20T04:36:53;5.90;99.90
11083;DHT22;5595;50.186;8.468;2023-12-20T04:39:20;6.20;99.90
11083;DHT22;5595;50.186;8.468;2023-12-20T04:41:51;5.80;99.90
11083;DHT22;5595;50.186;8.468;2023-12-20T04:44:18;5.90;99.90
11083;DHT22;5595;50.186;8.468;2023-12-20T04:46:47;6.70;99.90
11083;DHT22;5595;50.186;8.468;2023-12-20T04:49:14;6.40;99.90
11083;DHT22;5595;50.186;8.468;2023-12-20T04:51:45;5.70;99.90
11083;DHT22;5595;50.186;8.468;2023-12-20T04:54:12;5.60;99.90
11083;DHT22;5595;50.186;8.468;2023-12-20T04:56:39;6.20;99.90
11083;DHT22;5595;50.186;8.468;2023-12-20T05:09:29;5.00;99.90
11083;DHT22;5595;50.186;8.468;2023-12-20T05:11:56;4.80;99.90
11083;DHT22;5595;50.186;8.468;2023-12-20T05:14:22;4.50;99.90
11083;DHT22;5595;50.186;8.468;2023-12-20T05:16:50;4.80;99.90
11083;DHT22;5595;50.186;8.468;2023-12-20T05:19:17;4.80;99.90
11083;DHT22;5595;50.186;8.468;2023-12-20T05:21:49;4.50;99.90
11083;DHT22;5595;50.186;8.468;2023-12-20T05:24:19;4.60;99.90
11083;DHT22;5595;50.186;8.468;2023-12-20T05:26:47;4.60;99.90
11083;DHT22;5595;50.186;8.468;2023-12-20T05:29:17;4.60;99.90
11083;DHT22;5595;50.186;8.468;2023-12-20T05:31:44;4.70;99.90
11083;DHT22;5595;50.186;8.468;2023-12-20T05:34:11;4.70;99.90
11083;DHT22;5595;50.186;8.468;2023-12-20T05:36:38;5.40;99.90
11083;DHT22;5595;50.186;8.468;2023-12-20T05:39:08;4.80;99.90
11083;DHT22;5595;50.186;8.468;2023-12-20T05:41:35;4.60;99.90
11083;DHT22;5595;50.186;8.468;2023-12-20T05:44:04;4.80;99.90
11083;DHT22;5595;50.186;8.468;2023-12-20T05:46:30;5.30;99.90
11083;DHT22;5595;50.186;8.468;2023-12-20T05:48:57;5.20;99.90
11083;DHT22;5595;50.186;8.468;2023-12-20T05:51:24;4.60;99.90
11083;DHT22;5595;50.186;8.468;2023-12-20T05:53:51;4.80;99.90
11083;DHT22;5595;50.186;8.468;2023-12-20T05:56:18;5.20;99.90
11083;DHT22;5595;50.186;8.468;2023-12-20T05:58:45;5.30;99.90
11083;DHT22;5595;50.186;8.468;2023-12-20T06:01:14;4.40;99.90
11083;DHT22;5595;50.186;8.468;2023-12-20T06:03:43;4.30;99.90
11083;DHT22;5595;50.186;8.468;2023-12-20T06:06:11;4.20;99.90
11083;DHT22;5595;50.186;8.468;2023-12-20T06:08:38;4.20;99.90
11083;DHT22;5595;50.186;8.468;2023-12-20T06:11:05;4.60;99.90
11083;DHT22;5595;50.186;8.468;2023-12-20T06:13:32;4.60;99.90
11083;DHT22;5595;50.186;8.468;2023-12-20T06:16:05;4.10;99.90
11083;DHT22;5595;50.186;8.468;2023-12-20T06:18:34;4.20;99.90
11083;DHT22;5595;50.186;8.468;2023-12-20T06:21:04;5.00;99.90
11083;DHT22;5595;50.186;8.468;2023-12-20T06:23:32;4.00;99.90
11083;DHT22;5595;50.186;8.468;2023-12-20T06:25:59;4.10;99.90
11083;DHT22;5595;50.186;8.468;2023-12-20T06:28:28;4.10;99.90
11083;DHT22;5595;50.186;8.468;2023-12-20T06:30:55;3.90;99.90
11083;DHT22;5595;50.186;8.468;2023-12-20T06:33:27;3.70;99.90
11083;DHT22;5595;50.186;8.468;2023-12-20T06:35:56;3.90;99.90
11083;DHT22;5595;50.186;8.468;2023-12-20T06:38:23;3.90;99.90
11083;DHT22;5595;50.186;8.468;2023-12-20T06:47:38;3.70;99.90
11083;DHT22;5595;50.186;8.468;2023-12-20T06:50:05;3.60;99.90
11083;DHT22;5595;50.186;8.468;2023-12-20T06:52:35;3.60;99.90
11083;DHT22;5595;50.186;8.468;2023-12-20T06:55:01;3.60;99.90
11083;DHT22;5595;50.186;8.468;2023-12-20T06:57:29;3.70;99.90
11083;DHT22;5595;50.186;8.468;2023-12-20T06:59:56;3.70;99.90
11083;DHT22;5595;50.186;8.468;2023-12-20T07:02:23;3.80;99.90
11083;DHT22;5595;50.186;8.468;2023-12-20T07:04:50;3.80;99.90
11083;DHT22;5595;50.186;8.468;2023-12-20T07:07:17;3.90;99.90
11083;DHT22;5595;50.186;8.468;2023-12-20T07:09:45;4.00;99.90
11083;DHT22;5595;50.186;8.468;2023-12-20T07:12:12;4.00;99.90
11083;DHT22;5595;50.186;8.468;2023-12-20T07:14:39;4.10;99.90
11083;DHT22;5595;50.186;8.468;2023-12-20T07:17:06;4.20;99.90
11083;DHT22;5595;50.186;8.468;2023-12-20T07:19:37;4.20;99.90
11083;DHT22;5595;50.186;8.468;2023-12-20T07:22:04;4.30;99.90
11083;DHT22;5595;50.186;8.468;2023-12-20T07:24:30;4.30;99.90
11083;DHT22;5595;50.186;8.468;2023-12-20T07:26:59;4.30;99.90
11083;DHT22;5595;50.186;8.468;2023-12-20T07:29:26;4.30;99.90
11083;DHT22;5595;50.186;8.468;2023-12-20T07:31:52;4.30;99.90
11083;DHT22;5595;50.186;8.468;2023-12-20T07:34:19;4.30;99.90
11083;DHT22;5595;50.186;8.468;2023-12-20T07:36:46;4.40;99.90
11083;DHT22;5595;50.186;8.468;2023-12-20T07:39:14;4.40;99.90
11083;DHT22;5595;50.186;8.468;2023-12-20T07:41:41;4.40;99.90
11083;DHT22;5595;50.186;8.468;2023-12-20T07:44:09;4.50;99.90
11083;DHT22;5595;50.186;8.468;2023-12-20T07:46:36;4.40;99.90
11083;DHT22;5595;50.186;8.468;2023-12-20T07:49:03;4.50;99.90
11083;DHT22;5595;50.186;8.468;2023-12-20T07:51:30;4.60;99.90
11083;DHT22;5595;50.186;8.468;2023-12-20T07:53:57;4.60;99.90
11083;DHT22;5595;50.186;8.468;2023-12-20T07:56:24;4.60;99.90
11083;DHT22;5595;50.186;8.468;2023-12-20T07:58:50;4.60;99.90
11083;DHT22;5595;50.186;8.468;2023-12-20T08:01:18;4.70;99.90
11083;DHT22;5595;50.186;8.468;2023-12-20T08:03:45;4.70;99.90
11083;DHT22;5595;50.186;8.468;2023-12-20T08:06:12;4.70;99.90
11083;DHT22;5595;50.186;8.468;2023-12-20T08:08:39;4.70;99.90
11083;DHT22;5595;50.186;8.468;2023-12-20T08:11:06;4.80;99.90
11083;DHT22;5595;50.186;8.468;2023-12-20T08:13:33;4.80;99.90
11083;DHT22;5595;50.186;8.468;2023-12-20T08:16:00;4.80;99.90
11083;DHT22;5595;50.186;8.468;2023-12-20T08:18:29;4.90;99.90
11083;DHT22;5595;50.186;8.468;2023-12-20T08:20:56;4.80;99.90
11083;DHT22;5595;50.186;8.468;2023-12-20T08:23:23;4.80;99.90
11083;DHT22;5595;50.186;8.468;2023-12-20T08:25:50;4.90;99.90
11083;DHT22;5595;50.186;8.468;2023-12-20T08:28:16;5.00;99.90
11083;DHT22;5595;50.186;8.468;2023-12-20T08:30:43;5.10;99.90
11083;DHT22;5595;50.186;8.468;2023-12-20T08:33:10;5.20;99.90
11083;DHT22;5595;50.186;8.468;2023-12-20T08:35:39;5.20;99.90
11083;DHT22;5595;50.186;8.468;2023-12-20T08:38:06;5.30;99.90
11083;DHT22;5595;50.186;8.468;2023-12-20T08:40:33;5.30;99.90
11083;DHT22;5595;50.186;8.468;2023-12-20T08:43:01;5.30;99.90
11083;DHT22;5595;50.186;8.468;2023-12-20T08:45:27;5.40;99.90
11083;DHT22;5595;50.186;8.468;2023-12-20T08:47:54;5.50;99.90
11083;DHT22;5595;50.186;8.468;2023-12-20T08:50:21;5.60;99.90
11083;DHT22;5595;50.186;8.468;2023-12-20T08:52:49;5.60;99.90
11083;DHT22;5595;50.186;8.468;2023-12-20T08:55:16;5.70;99.90
11083;DHT22;5595;50.186;8.468;2023-12-20T08:57:43;5.80;99.90
11083;DHT22;5595;50.186;8.468;2023-12-20T09:00:11;5.90;99.90
11083;DHT22;5595;50.186;8.468;2023-12-20T09:02:38;5.90;99.90
11083;DHT22;5595;50.186;8.468;2023-12-20T09:05:06;5.90;99.90
11083;DHT22;5595;50.186;8.468;2023-12-20T09:07:32;6.00;99.90
11083;DHT22;5595;50.186;8.468;2023-12-20T09:10:01;6.00;99.90
11083;DHT22;5595;50.186;8.468;2023-12-20T09:12:28;6.10;99.90
11083;DHT22;5595;50.186;8.468;2023-12-20T09:14:54;6.10;99.90
11083;DHT22;5595;50.186;8.468;2023-12-20T09:17:21;6.10;99.90
11083;DHT22;5595;50.186;8.468;2023-12-20T09:19:49;6.30;99.90
11083;DHT22;5595;50.186;8.468;2023-12-20T09:22:18;6.30;99.90
11083;DHT22;5595;50.186;8.468;2023-12-20T09:24:44;6.40;99.90
11083;DHT22;5595;50.186;8.468;2023-12-20T09:27:13;6.50;99.90
11083;DHT22;5595;50.186;8.468;2023-12-20T09:29:39;6.50;99.90
11083;DHT22;5595;50.186;8.468;2023-12-20T09:32:06;6.60;99.90
11083;DHT22;5595;50.186;8.468;2023-12-20T09:34:33;6.60;99.90
11083;DHT22;5595;50.186;8.468;2023-12-20T09:37:00;6.60;99.90
11083;DHT22;5595;50.186;8.468;2023-12-20T09:39:28;6.60;99.90
11083;DHT22;5595;50.186;8.468;2023-12-20T09:42:00;6.60;99.90
11083;DHT22;5595;50.186;8.468;2023-12-20T09:44:29;6.60;99.90
11083;DHT22;5595;50.186;8.468;2023-12-20T09:46:57;6.60;99.90
11083;DHT22;5595;50.186;8.468;2023-12-20T09:49:25;6.60;99.90
11083;DHT22;5595;50.186;8.468;2023-12-20T09:51:54;6.60;99.90
11083;DHT22;5595;50.186;8.468;2023-12-20T09:54:21;6.70;99.90
11083;DHT22;5595;50.186;8.468;2023-12-20T09:56:48;6.70;99.90
11083;DHT22;5595;50.186;8.468;2023-12-20T09:59:15;6.70;99.90
11083;DHT22;5595;50.186;8.468;2023-12-20T10:01:43;6.70;99.90
11083;DHT22;5595;50.186;8.468;2023-12-20T10:04:12;6.80;99.90
11083;DHT22;5595;50.186;8.468;2023-12-20T10:06:39;6.90;99.90
11083;DHT22;5595;50.186;8.468;2023-12-20T10:09:06;7.00;99.90
11083;DHT22;5595;50.186;8.468;2023-12-20T10:11:35;7.10;99.90
11083;DHT22;5595;50.186;8.468;2023-12-20T10:14:03;7.30;99.90
11083;DHT22;5595;50.186;8.468;2023-12-20T10:16:30;7.30;99.90
11083;DHT22;5595;50.186;8.468;2023-12-20T10:19:00;7.30;99.90
11083;DHT22;5595;50.186;8.468;2023-12-20T10:21:27;7.30;99.90
11083;DHT22;5595;50.186;8.468;2023-12-20T10:23:54;7.40;99.90
11083;DHT22;5595;50.186;8.468;2023-12-20T10:26:21;7.40;99.90
11083;DHT22;5595;50.186;8.468;2023-12-20T10:28:50;7.40;99.90
11083;DHT22;5595;50.186;8.468;2023-12-20T10:31:26;7.40;99.90
11083;DHT22;5595;50.186;8.468;2023-12-20T10:33:55;7.40;99.90
11083;DHT22;5595;50.186;8.468;2023-12-20T10:36:25;7.30;99.90
11083;DHT22;5595;50.186;8.468;2023-12-20T10:38:53;7.20;99.90
11083;DHT22;5595;50.186;8.468;2023-12-20T10:41:25;7.10;99.90
11083;DHT22;5595;50.186;8.468;2023-12-20T10:43:54;7.00;99.90
11083;DHT22;5595;50.186;8.468;2023-12-20T10:46:21;7.00;99.90
11083;DHT22;5595;50.186;8.468;2023-12-20T10:48:51;7.00;99.90
11083;DHT22;5595;50.186;8.468;2023-12-20T10:51:18;7.00;99.90
11083;DHT22;5595;50.186;8.468;2023-12-20T10:53:47;7.00;99.90
11083;DHT22;5595;50.186;8.468;2023-12-20T10:56:16;7.00;99.90
11083;DHT22;5595;50.186;8.468;2023-12-20T10:58:44;7.00;99.90
11083;DHT22;5595;50.186;8.468;2023-12-20T11:01:13;7.10;99.90
11083;DHT22;5595;50.186;8.468;2023-12-20T11:03:44;7.30;99.90
11083;DHT22;5595;50.186;8.468;2023-12-20T11:06:21;7.30;99.90
11083;DHT22;5595;50.186;8.468;2023-12-20T12:01:19;8.10;99.90
11083;DHT22;5595;50.186;8.468;2023-12-20T12:03:46;8.10;99.90
11083;DHT22;5595;50.186;8.468;2023-12-20T12:06:16;8.00;99.90
11083;DHT22;5595;50.186;8.468;2023-12-20T12:11:19;8.10;99.90
11083;DHT22;5595;50.186;8.468;2023-12-20T12:13:46;8.00;99.90
11083;DHT22;5595;50.186;8.468;2023-12-20T12:16:17;8.40;99.90
11083;DHT22;5595;50.186;8.468;2023-12-20T12:18:45;8.10;99.90
11083;DHT22;5595;50.186;8.468;2023-12-20T12:21:19;9.20;99.90
11083;DHT22;5595;50.186;8.468;2023-12-20T12:23:48;8.60;99.90
11083;DHT22;5595;50.186;8.468;2023-12-20T12:26:18;8.90;99.90
11083;DHT22;5595;50.186;8.468;2023-12-20T13:12:47;8.60;99.90
11083;DHT22;5595;50.186;8.468;2023-12-20T13:15:17;9.10;99.90
11083;DHT22;5595;50.186;8.468;2023-12-20T13:17:44;9.40;99.90
11083;DHT22;5595;50.186;8.468;2023-12-20T13:20:12;8.30;99.90
11083;DHT22;5595;50.186;8.468;2023-12-20T13:22:39;9.40;99.90
11083;DHT22;5595;50.186;8.468;2023-12-20T13:25:06;9.00;99.90
11083;DHT22;5595;50.186;8.468;2023-12-20T13:27:33;8.00;99.90
11083;DHT22;5595;50.186;8.468;2023-12-20T13:30:05;7.80;99.90
11083;DHT22;5595;50.186;8.468;2023-12-20T13:32:35;7.80;99.90
11083;DHT22;5595;50.186;8.468;2023-12-20T13:35:02;7.80;99.90
11083;DHT22;5595;50.186;8.468;2023-12-20T13:37:29;7.80;99.90
11083;DHT22;5595;50.186;8.468;2023-12-20T13:39:59;7.80;99.90
11083;DHT22;5595;50.186;8.468;2023-12-20T13:42:28;7.70;99.90
11083;DHT22;5595;50.186;8.468;2023-12-20T13:44:58;8.20;99.90
11083;DHT22;5595;50.186;8.468;2023-12-20T13:47:27;7.90;99.90
11083;DHT22;5595;50.186;8.468;2023-12-20T14:00:16;7.30;99.90
11083;DHT22;5595;50.186;8.468;2023-12-20T14:02:45;7.20;99.90
11083;DHT22;5595;50.186;8.468;2023-12-20T14:05:15;7.30;99.90
11083;DHT22;5595;50.186;8.468;2023-12-20T14:07:43;7.10;99.90
11083;DHT22;5595;50.186;8.468;2023-12-20T14:10:11;7.10;99.90
11083;DHT22;5595;50.186;8.468;2023-12-20T14:12:39;7.80;99.90
11083;DHT22;5595;50.186;8.468;2023-12-20T14:15:06;7.20;99.90
11083;DHT22;5595;50.186;8.468;2023-12-20T14:17:36;7.10;99.90
11083;DHT22;5595;50.186;8.468;2023-12-20T14:20:08;6.70;99.90
11083;DHT22;5595;50.186;8.468;2023-12-20T14:22:38;7.10;99.90
11083;DHT22;5595;50.186;8.468;2023-12-20T14:28:52;7.10;99.90
11083;DHT22;5595;50.186;8.468;2023-12-20T14:42:36;7.00;99.90
11083;DHT22;5595;50.186;8.468;2023-12-20T14:45:51;7.00;99.90
11083;DHT22;5595;50.186;8.468;2023-12-20T14:49:01;6.90;99.90
11083;DHT22;5595;50.186;8.468;2023-12-20T14:55:08;6.80;99.90
11083;DHT22;5595;50.186;8.468;2023-12-20T15:46:33;6.40;99.90
11083;DHT22;5595;50.186;8.468;2023-12-20T16:31:55;6.30;99.90
11083;DHT22;5595;50.186;8.468;2023-12-20T16:34:22;6.30;99.90
11083;DHT22;5595;50.186;8.468;2023-12-20T16:36:56;6.30;99.90
11083;DHT22;5595;50.186;8.468;2023-12-20T16:44:36;6.40;99.90
11083;DHT22;5595;50.186;8.468;2023-12-20T16:47:05;6.90;99.90
11083;DHT22;5595;50.186;8.468;2023-12-20T16:49:32;6.40;99.90
11083;DHT22;5595;50.186;8.468;2023-12-20T16:51:59;6.90;99.90
11083;DHT22;5595;50.186;8.468;2023-12-20T16:54:26;6.80;99.90
11083;DHT22;5595;50.186;8.468;2023-12-20T16:56:54;6.50;99.90
11083;DHT22;5595;50.186;8.468;2023-12-20T16:59:21;6.60;99.90
11083;DHT22;5595;50.186;8.468;2023-12-20T17:01:48;7.00;99.90
11083;DHT22;5595;50.186;8.468;2023-12-20T17:18:26;6.50;99.90
11083;DHT22;5595;50.186;8.468;2023-12-20T17:41:27;6.40;99.90
11083;DHT22;5595;50.186;8.468;2023-12-20T17:43:54;6.40;99.90
11083;DHT22;5595;50.186;8.468;2023-12-20T17:46:21;6.40;99.90
11083;DHT22;5595;50.186;8.468;2023-12-20T17:48:48;6.40;99.90
11083;DHT22;5595;50.186;8.468;2023-12-20T17:51:15;6.40;99.90
11083;DHT22;5595;50.186;8.468;2023-12-20T17:53:42;6.40;99.90
11083;DHT22;5595;50.186;8.468;2023-12-20T17:56:08;6.40;99.90
11083;DHT22;5595;50.186;8.468;2023-12-20T17:58:37;6.40;99.90
11083;DHT22;5595;50.186;8.468;2023-12-20T18:01:04;6.40;99.90
11083;DHT22;5595;50.186;8.468;2023-12-20T18:03:30;6.50;99.90
11083;DHT22;5595;50.186;8.468;2023-12-20T18:05:57;6.50;99.90
11083;DHT22;5595;50.186;8.468;2023-12-20T18:08:24;6.40;99.90
11083;DHT22;5595;50.186;8.468;2023-12-20T18:10:51;6.50;99.90
11083;DHT22;5595;50.186;8.468;2023-12-20T18:13:18;6.50;99.90
11083;DHT22;5595;50.186;8.468;2023-12-20T18:15:46;6.50;99.90
11083;DHT22;5595;50.186;8.468;2023-12-20T18:18:13;6.50;99.90
11083;DHT22;5595;50.186;8.468;2023-12-20T18:20:40;6.50;99.90
11083;DHT22;5595;50.186;8.468;2023-12-20T18:23:07;6.50;99.90
11083;DHT22;5595;50.186;8.468;2023-12-20T18:25:33;6.50;99.90
11083;DHT22;5595;50.186;8.468;2023-12-20T18:28:00;6.50;99.90
11083;DHT22;5595;50.186;8.468;2023-12-20T18:51:12;6.30;99.90
11083;DHT22;5595;50.186;8.468;2023-12-20T18:53:39;6.30;99.90
11083;DHT22;5595;50.186;8.468;2023-12-20T18:56:07;6.40;99.90
11083;DHT22;5595;50.186;8.468;2023-12-20T18:58:34;6.40;99.90
11083;DHT22;5595;50.186;8.468;2023-12-20T19:01:04;5.50;99.90
11083;DHT22;5595;50.186;8.468;2023-12-20T19:03:32;6.30;99.90
11083;DHT22;5595;50.186;8.468;2023-12-20T19:05:59;6.40;99.90
11083;DHT22;5595;50.186;8.468;2023-12-20T19:08:29;6.40;99.90
11083;DHT22;5595;50.186;8.468;2023-12-20T19:10:56;6.70;99.90
11083;DHT22;5595;50.186;8.468;2023-12-20T19:13:26;6.20;99.90
11083;DHT22;5595;50.186;8.468;2023-12-20T19:15:56;6.30;99.90
11083;DHT22;5595;50.186;8.468;2023-12-20T19:18:24;6.80;99.90
11083;DHT22;5595;50.186;8.468;2023-12-20T19:20:51;6.90;99.90
11083;DHT22;5595;50.186;8.468;2023-12-20T19:23:18;6.50;99.90
11083;DHT22;5595;50.186;8.468;2023-12-20T19:25:47;6.40;99.90
11083;DHT22;5595;50.186;8.468;2023-12-20T19:28:13;6.30;99.90
11083;DHT22;5595;50.186;8.468;2023-12-20T19:59:57;6.10;99.90
11083;DHT22;5595;50.186;8.468;2023-12-20T20:02:24;6.90;99.90
11083;DHT22;5595;50.186;8.468;2023-12-20T20:04:51;4.80;99.90
11083;DHT22;5595;50.186;8.468;2023-12-20T20:07:18;6.20;99.90
11083;DHT22;5595;50.186;8.468;2023-12-20T20:46:11;5.80;99.90
11083;DHT22;5595;50.186;8.468;2023-12-20T20:48:38;5.80;99.90
11083;DHT22;5595;50.186;8.468;2023-12-20T20:51:06;5.70;99.90
11083;DHT22;5595;50.186;8.468;2023-12-20T20:53:33;6.50;99.90
11083;DHT22;5595;50.186;8.468;2023-12-20T20:55:59;6.70;99.90
11083;DHT22;5595;50.186;8.468;2023-12-20T20:58:27;5.90;99.90
11083;DHT22;5595;50.186;8.468;2023-12-20T21:00:54;5.80;99.90
11083;DHT22;5595;50.186;8.468;2023-12-20T21:03:23;5.70;99.90
11083;DHT22;5595;50.186;8.468;2023-12-20T21:05:50;6.50;99.90
11083;DHT22;5595;50.186;8.468;2023-12-20T21:08:17;4.70;99.90
11083;DHT22;5595;50.186;8.468;2023-12-20T21:10:44;5.80;99.90
11083;DHT22;5595;50.186;8.468;2023-12-20T21:13:12;6.40;99.90
11083;DHT22;5595;50.186;8.468;2023-12-20T21:15:39;6.40;99.90
11083;DHT22;5595;50.186;8.468;2023-12-20T21:18:06;5.90;99.90
11083;DHT22;5595;50.186;8.468;2023-12-20T22:40:50;6.20;99.90
11083;DHT22;5595;50.186;8.468;2023-12-20T22:43:17;6.20;99.90
11083;DHT22;5595;50.186;8.468;2023-12-20T22:45:44;6.20;99.90
11083;DHT22;5595;50.186;8.468;2023-12-20T22:48:11;6.20;99.90
11083;DHT22;5595;50.186;8.468;2023-12-20T22:50:38;6.20;99.90
11083;DHT22;5595;50.186;8.468;2023-12-20T22:53:05;6.20;99.90
11083;DHT22;5595;50.186;8.468;2023-12-20T22:55:32;6.30;99.90
11083;DHT22;5595;50.186;8.468;2023-12-20T22:58:00;6.20;99.90
11083;DHT22;5595;50.186;8.468;2023-12-20T23:00:27;6.20;99.90
11083;DHT22;5595;50.186;8.468;2023-12-20T23:02:53;6.20;99.90
11083;DHT22;5595;50.186;8.468;2023-12-20T23:05:21;6.20;99.90
11083;DHT22;5595;50.186;8.468;2023-12-20T23:07:48;6.20;99.90
11083;DHT22;5595;50.186;8.468;2023-12-20T23:10:15;6.20;99.90
11083;DHT22;5595;50.186;8.468;2023-12-20T23:12:47;6.20;99.90
11083;DHT22;5595;50.186;8.468;2023-12-20T23:15:15;6.20;99.90
11083;DHT22;5595;50.186;8.468;2023-12-20T23:17:42;6.20;99.90
11083;DHT22;5595;50.186;8.468;2023-12-20T23:20:09;6.20;99.90
11083;DHT22;5595;50.186;8.468;2023-12-20T23:22:36;6.20;99.90
11083;DHT22;5595;50.186;8.468;2023-12-20T23:25:03;6.20;99.90
11083;DHT22;5595;50.186;8.468;2023-12-20T23:27:30;6.20;99.90
11083;DHT22;5595;50.186;8.468;2023-12-20T23:29:57;6.20;99.90
11083;DHT22;5595;50.186;8.468;2023-12-20T23:32:25;6.20;99.90
11083;DHT22;5595;50.186;8.468;2023-12-20T23:34:52;6.20;99.90
11083;DHT22;5595;50.186;8.468;2023-12-20T23:37:19;6.20;99.90
11083;DHT22;5595;50.186;8.468;2023-12-20T23:39:47;6.20;99.90
11083;DHT22;5595;50.186;8.468;2023-12-20T23:42:14;6.20;99.90
11083;DHT22;5595;50.186;8.468;2023-12-20T23:44:43;6.20;99.90
11083;DHT22;5595;50.186;8.468;2023-12-20T23:47:10;6.30;99.90
11083;DHT22;5595;50.186;8.468;2023-12-20T23:49:38;6.30;99.90
11083;DHT22;5595;50.186;8.468;2023-12-20T23:52:05;6.30;99.90
11083;DHT22;5595;50.186;8.468;2023-12-20T23:54:32;6.30;99.90
11083;DHT22;5595;50.186;8.468;2023-12-20T23:56:59;6.40;99.90
11083;DHT22;5595;50.186;8.468;2023-12-20T23:59:26;6.40;99.90
